createdAt,value
2019-05-23T00:00:42.897Z,225.65
2019-05-23T00:09:06.089Z,183.82
2019-05-23T00:17:32.353Z,180.37
2019-05-23T00:25:56.279Z,188.93
2019-05-23T00:34:18.407Z,179.27
2019-05-23T00:42:40.279Z,185.12
2019-05-23T00:51:05.055Z,189.37
2019-05-23T00:59:27.694Z,177.93
2019-05-23T01:07:48.124Z,179.95
2019-05-23T01:16:11.291Z,181.87
2019-05-23T01:24:44.103Z,185.03
2019-05-23T01:33:07.586Z,183.22
2019-05-23T01:41:30.145Z,174.90
2019-05-23T01:49:52.522Z,180.00
2019-05-23T01:58:14.317Z,175.03
2019-05-23T02:06:36.093Z,175.57
2019-05-23T02:14:58.960Z,176.68
2019-05-23T02:23:21.998Z,176.63
2019-05-23T02:31:44.576Z,173.93
2019-05-23T02:40:16.930Z,182.27
2019-05-23T02:48:41.975Z,176.27
2019-05-23T02:57:04.012Z,176.35
2019-05-23T03:05:27.520Z,180.35
2019-05-23T03:13:49.428Z,187.50
2019-05-23T03:22:19.389Z,180.00
2019-05-23T03:30:43.148Z,174.35
2019-05-23T03:39:07.219Z,176.90
2019-05-23T03:47:30.760Z,180.42
2019-05-23T03:55:53.473Z,180.55
2019-05-23T04:04:15.920Z,186.75
2019-05-23T04:12:38.962Z,176.93
2019-05-23T04:21:00.692Z,172.10
2019-05-23T04:29:23.350Z,177.30
2019-05-23T04:37:46.968Z,183.75
2019-05-23T04:46:09.602Z,185.60
2019-05-23T04:54:31.674Z,197.17
2019-05-23T05:02:54.730Z,184.03
2019-05-23T05:11:18.376Z,179.75
2019-05-23T05:19:41.888Z,195.05
2019-05-23T05:28:03.832Z,188.37
2019-05-23T05:36:30.848Z,189.97
2019-05-23T05:45:46.113Z,186.70
2019-05-23T05:54:09.411Z,180.63
2019-05-23T06:02:35.534Z,190.62
2019-05-23T06:10:58.016Z,176.97
2019-05-23T06:19:27.356Z,181.22
2019-05-23T06:34:42.927Z,180.87
2019-05-23T06:43:11.234Z,223.20
2019-05-23T06:51:39.150Z,190.92
2019-05-23T07:00:27.377Z,185.70
2019-05-23T07:08:53.991Z,197.33
2019-05-23T07:17:27.544Z,186.92
2019-05-23T07:25:49.058Z,190.32
2019-05-23T07:45:23.505Z,190.03
2019-05-23T07:53:57.799Z,188.90
2019-05-23T08:02:29.311Z,190.95
2019-05-23T17:07:38.547Z,184.05
2019-05-23T17:16:10.369Z,206.63
2019-05-23T17:24:39.971Z,206.72
2019-05-23T17:33:00.565Z,214.17
2019-05-23T17:41:22.194Z,239.40
2019-05-23T17:49:44.435Z,214.42
2019-05-23T17:58:07.146Z,201.37
2019-05-23T18:06:28.936Z,203.92
2019-05-23T18:14:51.511Z,201.73
2019-05-23T18:23:13.286Z,225.28
2019-05-23T18:31:37.150Z,215.68
2019-05-23T18:39:58.477Z,202.60
2019-05-23T18:48:20.155Z,200.72
2019-05-23T19:04:00.749Z,199.15
2019-05-23T19:12:22.605Z,203.60
2019-05-23T19:20:44.137Z,203.42
2019-05-23T19:29:05.943Z,202.80
2019-05-23T19:37:27.906Z,199.60
2019-05-23T19:45:49.311Z,207.22
2019-05-23T19:54:10.595Z,202.28
2019-05-23T20:02:33.795Z,203.73
2019-05-23T20:10:55.248Z,198.50
2019-05-23T20:19:16.720Z,204.95
2019-05-23T20:27:40.771Z,201.55
2019-05-23T20:36:04.113Z,211.52
2019-05-23T20:44:25.815Z,198.28
2019-05-23T20:52:47.623Z,203.88
2019-05-23T21:01:16.760Z,205.90
2019-05-23T21:09:38.276Z,199.72
2019-05-23T21:17:59.970Z,197.10
2019-05-23T21:26:21.859Z,196.82
2019-05-23T21:34:43.849Z,196.45
2019-05-23T21:43:05.625Z,192.47
2019-05-23T21:51:27.429Z,194.65
2019-05-23T21:59:48.996Z,193.93
2019-05-23T22:08:11.160Z,202.00
2019-05-23T22:16:33.117Z,195.30
2019-05-23T22:24:55.125Z,197.95
2019-05-23T22:33:18.470Z,195.25
2019-05-23T22:41:40.601Z,194.25
2019-05-23T22:50:02.623Z,205.25
2019-05-23T22:59:00.072Z,196.63
2019-05-23T23:07:24.481Z,196.68
2019-05-23T23:15:46.072Z,199.62
2019-05-23T23:24:08.336Z,191.55
2019-05-23T23:32:30.100Z,197.47
2019-05-23T23:40:51.430Z,201.90
2019-05-23T23:49:31.672Z,196.72
2019-05-23T23:57:59.035Z,228.77
